createdAt,value
2019-03-09T00:00:33.858Z,99860.00
2019-03-09T00:03:02.604Z,99872.00
2019-03-09T00:05:30.980Z,99866.00
2019-03-09T00:07:59.665Z,99868.00
2019-03-09T00:10:28.016Z,99870.00
2019-03-09T00:12:56.681Z,99864.00
2019-03-09T00:15:25.384Z,99863.00
2019-03-09T00:17:53.695Z,99865.00
2019-03-09T00:20:22.142Z,99870.00
2019-03-09T00:22:55.928Z,99870.00
2019-03-09T00:25:29.354Z,99869.00
2019-03-09T00:28:12.629Z,99870.00
2019-03-09T00:31:00.773Z,99877.00
2019-03-09T00:33:29.878Z,99891.00
2019-03-09T00:35:58.551Z,99881.00
2019-03-09T00:38:27.014Z,99884.00
2019-03-09T00:40:55.622Z,99889.00
2019-03-09T00:43:24.320Z,99893.00
2019-03-09T00:45:52.948Z,99894.00
2019-03-09T00:48:21.373Z,99896.00
2019-03-09T00:50:49.726Z,99888.00
2019-03-09T00:53:18.295Z,99896.00
2019-03-09T00:55:46.478Z,99890.00
2019-03-09T00:58:15.069Z,99891.00
2019-03-09T01:00:43.573Z,99882.00
2019-03-09T01:03:12.118Z,99897.00
2019-03-09T01:05:40.922Z,99896.00
2019-03-09T01:08:09.297Z,99892.00
2019-03-09T01:10:37.643Z,99892.00
2019-03-09T01:13:05.881Z,99896.00
2019-03-09T01:15:35.151Z,99898.00
2019-03-09T01:18:03.972Z,99905.00
2019-03-09T01:20:32.211Z,99901.00
2019-03-09T01:23:01.305Z,99895.00
2019-03-09T01:25:29.831Z,99894.00
2019-03-09T01:27:58.511Z,99900.00
2019-03-09T01:30:26.752Z,99895.00
2019-03-09T01:32:55.297Z,99887.00
2019-03-09T01:35:23.980Z,99898.00
2019-03-09T01:37:52.336Z,99887.00
2019-03-09T01:40:21.314Z,99881.00
2019-03-09T01:42:50.076Z,99886.00
2019-03-09T01:45:18.747Z,99887.00
2019-03-09T01:47:47.037Z,99880.00
2019-03-09T01:50:15.759Z,99875.00
2019-03-09T01:52:44.238Z,99877.00
2019-03-09T01:55:12.939Z,99872.00
2019-03-09T01:57:41.484Z,99868.00
2019-03-09T02:00:10.841Z,99875.00
2019-03-09T02:02:39.211Z,99874.00
2019-03-09T02:05:09.066Z,99876.00
2019-03-09T02:07:37.453Z,99869.00
2019-03-09T02:10:07.714Z,99864.00
2019-03-09T02:12:36.003Z,99876.00
2019-03-09T02:15:05.383Z,99867.00
2019-03-09T02:17:34.048Z,99869.00
2019-03-09T02:20:03.140Z,99858.00
2019-03-09T02:22:31.384Z,99863.00
2019-03-09T02:24:59.896Z,99869.00
2019-03-09T02:27:28.466Z,99857.00
2019-03-09T02:29:56.930Z,99860.00
2019-03-09T02:32:25.551Z,99860.00
2019-03-09T02:34:54.021Z,99861.00
2019-03-09T02:37:22.272Z,99851.00
2019-03-09T02:39:56.271Z,99852.00
2019-03-09T02:42:24.644Z,99844.00
2019-03-09T02:44:52.958Z,99846.00
2019-03-09T02:47:21.360Z,99855.00
2019-03-09T02:49:50.136Z,99849.00
2019-03-09T02:52:18.510Z,99850.00
2019-03-09T02:54:47.153Z,99847.00
2019-03-09T02:57:15.608Z,99841.00
2019-03-09T02:59:43.806Z,99844.00
2019-03-09T03:02:20.357Z,99835.00
2019-03-09T03:04:48.683Z,99840.00
2019-03-09T03:07:17.018Z,99837.00
2019-03-09T03:09:45.657Z,99833.00
2019-03-09T03:12:14.447Z,99851.00
2019-03-09T03:14:42.767Z,99833.00
2019-03-09T03:17:11.506Z,99830.00
2019-03-09T03:19:40.464Z,99847.00
2019-03-09T03:22:08.959Z,99847.00
2019-03-09T03:24:37.255Z,99843.00
2019-03-09T03:27:05.546Z,99831.00
2019-03-09T03:29:34.015Z,99831.00
2019-03-09T03:32:02.562Z,99841.00
2019-03-09T03:34:31.400Z,99836.00
2019-03-09T03:36:59.723Z,99835.00
2019-03-09T03:39:28.195Z,99840.00
2019-03-09T03:41:56.845Z,99834.00
2019-03-09T03:44:25.459Z,99831.00
2019-03-09T03:46:54.103Z,99832.00
2019-03-09T03:49:24.777Z,99833.00
2019-03-09T03:51:53.177Z,99826.00
2019-03-09T03:54:21.764Z,99824.00
2019-03-09T03:56:50.600Z,99834.00
2019-03-09T03:59:19.172Z,99831.00
2019-03-09T04:01:47.594Z,99820.00
2019-03-09T04:04:16.191Z,99807.00
2019-03-09T04:06:44.935Z,99810.00
2019-03-09T04:09:13.554Z,99799.00
2019-03-09T04:11:42.099Z,99805.00
2019-03-09T04:14:10.743Z,99806.00
2019-03-09T04:16:39.044Z,99800.00
2019-03-09T04:19:07.568Z,99796.00
2019-03-09T04:21:36.106Z,99791.00
2019-03-09T04:24:04.511Z,99795.00
2019-03-09T04:26:32.841Z,99788.00
2019-03-09T04:29:01.657Z,99798.00
2019-03-09T04:31:30.283Z,99789.00
2019-03-09T04:34:00.280Z,99788.00
2019-03-09T04:36:28.878Z,99785.00
2019-03-09T04:38:57.245Z,99786.00
2019-03-09T04:41:25.903Z,99780.00
2019-03-09T04:43:54.276Z,99775.00
2019-03-09T04:46:22.980Z,99778.00
2019-03-09T04:48:51.318Z,99782.00
2019-03-09T04:51:19.750Z,99780.00
2019-03-09T04:53:48.066Z,99779.00
2019-03-09T04:56:16.505Z,99769.00
2019-03-09T04:58:44.770Z,99776.00
2019-03-09T05:01:13.610Z,99775.00
2019-03-09T05:03:41.935Z,99771.00
2019-03-09T05:06:15.117Z,99774.00
2019-03-09T05:09:09.719Z,99773.00
2019-03-09T05:11:38.168Z,99774.00
2019-03-09T05:14:13.789Z,99785.00
2019-03-09T05:16:42.121Z,99770.00
2019-03-09T05:19:10.601Z,99779.00
2019-03-09T05:21:39.319Z,99775.00
2019-03-09T05:24:08.009Z,99763.00
2019-03-09T05:26:36.419Z,99760.00
2019-03-09T05:29:04.742Z,99752.00
2019-03-09T05:31:33.141Z,99749.00
2019-03-09T05:34:01.796Z,99748.00
2019-03-09T05:36:30.222Z,99740.00
2019-03-09T05:38:58.601Z,99739.00
2019-03-09T05:41:27.291Z,99739.00
2019-03-09T05:43:55.651Z,99736.00
2019-03-09T05:46:24.039Z,99740.00
2019-03-09T05:48:52.688Z,99733.00
2019-03-09T05:51:21.163Z,99731.00
2019-03-09T05:53:49.826Z,99713.00
2019-03-09T05:56:18.480Z,99712.00
2019-03-09T05:58:47.216Z,99722.00
2019-03-09T06:01:15.472Z,99714.00
2019-03-09T06:03:43.906Z,99710.00
2019-03-09T06:06:15.649Z,99712.00
2019-03-09T06:08:44.778Z,99708.00
2019-03-09T06:11:13.364Z,99710.00
2019-03-09T06:13:42.072Z,99705.00
2019-03-09T06:16:10.426Z,99695.00
2019-03-09T06:18:38.785Z,99697.00
2019-03-09T06:21:07.548Z,99694.00
2019-03-09T06:23:36.198Z,99697.00
2019-03-09T06:26:04.676Z,99702.00
2019-03-09T06:28:33.582Z,99694.00
2019-03-09T06:31:01.935Z,99694.00
2019-03-09T06:33:37.785Z,99684.00
2019-03-09T06:37:06.236Z,99683.00
2019-03-09T06:39:42.099Z,99685.00
2019-03-09T06:42:39.072Z,99673.00
2019-03-09T06:45:11.269Z,99687.00
2019-03-09T06:47:40.068Z,99661.00
2019-03-09T06:50:11.176Z,99657.00
2019-03-09T06:52:39.559Z,99657.00
2019-03-09T06:55:09.301Z,99659.00
2019-03-09T06:57:37.862Z,99651.00
2019-03-09T07:00:35.476Z,99649.00
2019-03-09T07:03:04.595Z,99653.00
2019-03-09T07:05:32.809Z,99654.00
2019-03-09T07:08:01.186Z,99649.00
2019-03-09T07:10:29.598Z,99635.00
2019-03-09T07:12:57.945Z,99643.00
2019-03-09T07:15:35.445Z,99635.00
2019-03-09T07:18:13.439Z,99635.00
2019-03-09T07:20:41.857Z,99628.00
2019-03-09T07:23:10.192Z,99627.00
2019-03-09T07:25:38.706Z,99629.00
2019-03-09T07:28:09.978Z,99625.00
2019-03-09T07:30:38.373Z,99613.00
2019-03-09T07:33:06.790Z,99628.00
2019-03-09T07:35:35.041Z,99606.00
2019-03-09T07:38:04.077Z,99598.00
2019-03-09T07:40:32.925Z,99604.00
2019-03-09T07:43:01.412Z,99590.00
2019-03-09T07:45:29.917Z,99606.00
2019-03-09T07:47:58.286Z,99589.00
2019-03-09T07:50:26.712Z,99588.00
2019-03-09T07:52:55.530Z,99596.00
2019-03-09T07:55:24.471Z,99583.00
2019-03-09T07:57:59.372Z,99593.00
2019-03-09T08:00:28.218Z,99580.00
2019-03-09T08:02:56.740Z,99579.00
2019-03-09T08:05:25.387Z,99566.00
2019-03-09T08:07:54.004Z,99564.00
2019-03-09T08:10:22.615Z,99575.00
2019-03-09T08:12:51.259Z,99557.00
2019-03-09T08:15:19.905Z,99561.00
2019-03-09T08:17:48.746Z,99546.00
2019-03-09T08:20:17.176Z,99539.00
2019-03-09T08:22:45.748Z,99547.00
2019-03-09T08:25:14.757Z,99531.00
2019-03-09T08:27:43.411Z,99526.00
2019-03-09T08:30:20.725Z,99525.00
2019-03-09T08:32:49.056Z,99522.00
2019-03-09T08:35:18.967Z,99519.00
2019-03-09T08:37:48.318Z,99512.00
2019-03-09T08:40:17.353Z,99497.00
2019-03-09T08:42:45.741Z,99508.00
2019-03-09T08:45:16.248Z,99499.00
2019-03-09T08:47:52.068Z,99500.00
2019-03-09T08:50:17.528Z,99494.00
2019-03-09T08:52:45.980Z,99480.00
2019-03-09T08:55:17.102Z,99466.00
2019-03-09T08:57:45.811Z,99468.00
2019-03-09T09:00:17.632Z,99478.00
2019-03-09T09:02:46.295Z,99468.00
2019-03-09T09:05:14.594Z,99464.00
2019-03-09T09:07:42.993Z,99473.00
2019-03-09T09:10:12.245Z,99469.00
2019-03-09T09:12:40.747Z,99462.00
2019-03-09T09:15:10.478Z,99464.00
2019-03-09T09:17:39.664Z,99470.00
2019-03-09T09:20:11.759Z,99459.00
2019-03-09T09:22:40.486Z,99476.00
2019-03-09T09:25:09.350Z,99455.00
2019-03-09T09:27:37.821Z,99459.00
2019-03-09T09:30:10.984Z,99457.00
2019-03-09T09:32:39.427Z,99452.00
2019-03-09T09:35:09.280Z,99451.00
2019-03-09T09:37:38.109Z,99420.00
2019-03-09T09:40:09.144Z,99460.00
2019-03-09T09:42:37.572Z,99443.00
2019-03-09T09:45:07.846Z,99428.00
2019-03-09T09:47:36.557Z,99415.00
2019-03-09T09:50:05.783Z,99414.00
2019-03-09T09:52:34.137Z,99397.00
2019-03-09T09:55:02.443Z,99393.00
2019-03-09T09:57:30.969Z,99396.00
2019-03-09T09:59:59.259Z,99372.00
2019-03-09T10:02:27.638Z,99372.00
2019-03-09T10:04:56.397Z,99374.00
2019-03-09T10:07:24.762Z,99348.00
2019-03-09T10:09:53.344Z,99346.00
2019-03-09T10:12:22.065Z,99360.00
2019-03-09T10:14:50.491Z,99355.00
2019-03-09T10:17:18.859Z,99335.00
2019-03-09T10:19:47.803Z,99350.00
2019-03-09T10:22:16.538Z,99324.00
2019-03-09T10:24:44.884Z,99313.00
2019-03-09T10:27:13.393Z,99297.00
2019-03-09T10:29:42.289Z,99289.00
2019-03-09T10:32:10.655Z,99291.00
2019-03-09T10:34:39.144Z,99282.00
2019-03-09T10:37:07.531Z,99279.00
2019-03-09T10:39:36.078Z,99289.00
2019-03-09T10:42:04.591Z,99281.00
2019-03-09T10:44:33.124Z,99290.00
2019-03-09T10:47:02.782Z,99265.00
2019-03-09T10:49:31.139Z,99262.00
2019-03-09T10:51:59.835Z,99236.00
2019-03-09T10:54:35.669Z,99231.00
2019-03-09T10:56:58.853Z,99231.00
2019-03-09T10:59:27.741Z,99223.00
2019-03-09T11:01:56.135Z,99202.00
2019-03-09T11:04:27.886Z,99216.00
2019-03-09T11:06:55.041Z,99213.00
2019-03-09T11:09:23.411Z,99215.00
2019-03-09T11:11:52.154Z,99195.00
2019-03-09T11:14:20.754Z,99186.00
2019-03-09T11:16:50.537Z,99173.00
2019-03-09T11:19:19.072Z,99160.00
2019-03-09T11:21:47.417Z,99168.00
2019-03-09T11:24:15.638Z,99169.00
2019-03-09T11:26:44.549Z,99136.00
2019-03-09T11:29:12.825Z,99144.00
2019-03-09T11:31:41.277Z,99129.00
2019-03-09T11:34:09.724Z,99141.00
2019-03-09T11:36:38.032Z,99131.00
2019-03-09T11:39:07.468Z,99120.00
2019-03-09T11:41:36.003Z,99109.00
2019-03-09T11:44:04.418Z,99116.00
2019-03-09T11:46:32.773Z,99102.00
2019-03-09T11:49:02.127Z,99085.00
2019-03-09T11:51:30.466Z,99077.00
2019-03-09T11:53:58.917Z,99075.00
2019-03-09T11:56:27.207Z,99065.00
2019-03-09T11:58:55.629Z,99062.00
2019-03-09T12:01:24.117Z,99035.00
2019-03-09T12:03:52.399Z,99030.00
2019-03-09T12:06:20.961Z,99034.00
2019-03-09T12:08:51.763Z,99047.00
2019-03-09T12:11:20.377Z,99004.00
2019-03-09T12:13:49.270Z,99008.00
2019-03-09T12:16:18.016Z,99011.00
2019-03-09T12:18:46.334Z,98990.00
2019-03-09T12:21:14.790Z,98985.00
2019-03-09T12:23:43.571Z,98980.00
2019-03-09T12:26:12.145Z,98963.00
2019-03-09T12:28:40.603Z,98973.00
2019-03-09T12:31:09.034Z,98994.00
2019-03-09T12:33:37.599Z,98999.00
2019-03-09T12:36:06.383Z,99016.00
2019-03-09T12:38:34.972Z,99031.00
2019-03-09T12:41:03.724Z,99070.00
2019-03-09T12:43:32.040Z,99049.00
2019-03-09T12:46:00.784Z,99076.00
2019-03-09T12:48:29.416Z,99081.00
2019-03-09T12:50:58.449Z,99082.00
2019-03-09T12:53:27.187Z,99058.00
2019-03-09T12:55:55.761Z,99039.00
2019-03-09T12:58:24.416Z,99027.00
2019-03-09T13:00:54.651Z,99039.00
2019-03-09T13:03:23.055Z,99026.00
2019-03-09T13:05:51.333Z,99038.00
2019-03-09T13:08:19.775Z,99039.00
2019-03-09T13:10:48.430Z,99025.00
2019-03-09T13:13:17.084Z,99027.00
2019-03-09T13:15:45.761Z,99030.00
2019-03-09T13:18:14.528Z,99040.00
2019-03-09T13:20:42.805Z,99034.00
2019-03-09T13:23:11.198Z,99018.00
2019-03-09T13:25:39.969Z,99026.00
2019-03-09T13:28:08.441Z,99028.00
2019-03-09T13:30:37.031Z,99027.00
2019-03-09T13:33:05.722Z,99027.00
2019-03-09T13:35:34.217Z,99028.00
2019-03-09T13:38:03.090Z,99020.00
2019-03-09T13:40:31.491Z,99036.00
2019-03-09T13:42:59.711Z,99029.00
2019-03-09T13:45:28.269Z,99012.00
2019-03-09T13:47:56.909Z,99011.00
2019-03-09T13:50:25.295Z,99020.00
2019-03-09T13:52:53.607Z,98996.00
2019-03-09T13:55:22.445Z,99019.00
2019-03-09T13:57:51.025Z,99005.00
2019-03-09T14:00:19.731Z,98997.00
2019-03-09T14:02:48.655Z,98993.00
2019-03-09T14:05:17.444Z,98987.00
2019-03-09T14:07:45.811Z,98995.00
2019-03-09T14:10:14.724Z,98992.00
2019-03-09T14:12:43.463Z,98990.00
2019-03-09T14:15:13.167Z,98997.00
2019-03-09T14:17:41.585Z,99000.00
2019-03-09T14:20:10.822Z,98995.00
2019-03-09T14:22:39.164Z,98983.00
2019-03-09T14:25:08.557Z,98999.00
2019-03-09T14:27:37.101Z,98985.00
2019-03-09T14:30:06.515Z,99004.00
2019-03-09T14:32:35.408Z,99029.00
2019-03-09T14:35:05.120Z,99007.00
2019-03-09T14:37:33.355Z,99005.00
2019-03-09T14:40:02.176Z,99029.00
2019-03-09T14:42:30.461Z,99000.00
2019-03-09T14:44:58.867Z,99055.00
2019-03-09T14:47:27.283Z,99025.00
2019-03-09T14:49:55.669Z,99048.00
2019-03-09T14:52:23.891Z,99044.00
2019-03-09T14:54:52.696Z,99020.00
2019-03-09T14:57:21.103Z,99040.00
2019-03-09T14:59:51.054Z,98994.00
2019-03-09T15:02:19.626Z,98989.00
2019-03-09T15:04:48.836Z,98954.00
2019-03-09T15:07:17.317Z,98951.00
2019-03-09T15:09:45.727Z,98938.00
2019-03-09T15:12:14.089Z,98933.00
2019-03-09T15:14:42.542Z,98942.00
2019-03-09T15:17:11.133Z,98957.00
2019-03-09T15:19:39.868Z,98961.00
2019-03-09T15:22:08.413Z,98981.00
2019-03-09T15:24:37.269Z,98969.00
2019-03-09T15:27:05.982Z,98988.00
2019-03-09T15:29:34.295Z,98978.00
2019-03-09T15:32:02.723Z,98992.00
2019-03-09T15:34:31.367Z,98992.00
2019-03-09T15:37:00.078Z,98993.00
2019-03-09T15:39:29.260Z,98993.00
2019-03-09T15:41:58.138Z,98994.00
2019-03-09T15:44:26.405Z,99011.00
2019-03-09T15:46:55.160Z,99048.00
2019-03-09T15:49:23.561Z,99033.00
2019-03-09T15:51:52.239Z,99040.00
2019-03-09T15:54:20.499Z,99074.00
2019-03-09T15:56:48.870Z,99094.00
2019-03-09T15:59:17.337Z,99080.00
2019-03-09T16:01:45.684Z,99085.00
2019-03-09T16:04:14.416Z,99052.00
2019-03-09T16:06:42.747Z,98980.00
2019-03-09T16:09:11.696Z,98969.00
2019-03-09T16:11:44.971Z,98978.00
2019-03-09T16:14:10.948Z,98978.00
2019-03-09T16:16:39.698Z,98980.00
2019-03-09T16:19:08.535Z,98976.00
2019-03-09T16:21:37.214Z,98978.00
2019-03-09T16:24:05.724Z,98966.00
2019-03-09T16:26:34.183Z,98969.00
2019-03-09T16:29:02.480Z,98958.00
2019-03-09T16:31:31.148Z,98956.00
2019-03-09T16:33:59.934Z,98966.00
2019-03-09T16:36:28.645Z,98963.00
2019-03-09T16:38:57.115Z,98973.00
2019-03-09T16:41:25.604Z,98973.00
2019-03-09T16:43:54.384Z,98965.00
2019-03-09T16:46:22.687Z,98957.00
2019-03-09T16:48:51.382Z,98952.00
2019-03-09T16:51:19.795Z,98958.00
2019-03-09T16:53:48.160Z,98952.00
2019-03-09T16:56:17.696Z,98957.00
2019-03-09T16:58:46.101Z,98955.00
2019-03-09T17:01:14.684Z,98950.00
2019-03-09T17:03:43.224Z,98948.00
2019-03-09T17:06:11.652Z,98954.00
2019-03-09T17:08:39.927Z,98956.00
2019-03-09T17:11:08.373Z,98950.00
2019-03-09T17:13:36.976Z,98953.00
2019-03-09T17:16:05.465Z,98958.00
2019-03-09T17:18:33.774Z,98949.00
2019-03-09T17:21:02.481Z,98957.00
2019-03-09T17:23:30.839Z,98957.00
2019-03-09T17:25:59.250Z,98949.00
2019-03-09T17:28:27.932Z,98950.00
2019-03-09T17:30:56.312Z,98946.00
2019-03-09T17:33:24.824Z,98956.00
2019-03-09T17:35:53.012Z,98953.00
2019-03-09T17:38:21.427Z,98956.00
2019-03-09T17:40:49.797Z,98953.00
2019-03-09T17:43:18.212Z,98944.00
2019-03-09T17:45:46.786Z,98942.00
2019-03-09T17:48:15.127Z,98946.00
2019-03-09T17:50:43.924Z,98942.00
2019-03-09T17:53:14.058Z,98932.00
2019-03-09T17:55:42.559Z,98930.00
2019-03-09T17:58:11.321Z,98929.00
2019-03-09T18:00:43.172Z,98929.00
2019-03-09T18:03:11.800Z,98926.00
2019-03-09T18:05:40.365Z,98927.00
2019-03-09T18:08:09.136Z,98921.00
2019-03-09T18:10:45.470Z,98912.00
2019-03-09T18:13:14.075Z,98915.00
2019-03-09T18:15:43.165Z,98910.00
2019-03-09T18:18:11.422Z,98906.00
2019-03-09T18:20:40.185Z,98901.00
2019-03-09T18:23:08.660Z,98901.00
2019-03-09T18:25:37.260Z,98895.00
2019-03-09T18:28:05.997Z,98890.00
2019-03-09T18:30:34.298Z,98893.00
2019-03-09T18:33:02.685Z,98889.00
2019-03-09T18:35:31.101Z,98882.00
2019-03-09T18:37:59.498Z,98884.00
2019-03-09T18:40:28.147Z,98879.00
2019-03-09T18:42:56.566Z,98870.00
2019-03-09T18:45:25.263Z,98865.00
2019-03-09T18:47:53.592Z,98862.00
2019-03-09T18:50:22.262Z,98867.00
2019-03-09T18:52:52.870Z,98868.00
2019-03-09T18:55:21.461Z,98865.00
2019-03-09T18:57:49.985Z,98856.00
2019-03-09T19:00:18.837Z,98855.00
2019-03-09T19:02:47.596Z,98850.00
2019-03-09T19:05:15.852Z,98839.00
2019-03-09T19:07:44.358Z,98840.00
2019-03-09T19:10:13.879Z,98848.00
2019-03-09T19:12:42.968Z,98837.00
2019-03-09T19:15:12.177Z,98827.00
2019-03-09T19:17:40.929Z,98836.00
2019-03-09T19:20:10.836Z,98829.00
2019-03-09T19:22:39.322Z,98833.00
2019-03-09T19:25:08.801Z,98833.00
2019-03-09T19:27:37.549Z,98829.00
2019-03-09T19:30:09.338Z,98823.00
2019-03-09T19:32:37.985Z,98819.00
2019-03-09T19:35:07.381Z,98817.00
2019-03-09T19:37:35.915Z,98805.00
2019-03-09T19:40:04.885Z,98794.00
2019-03-09T19:42:33.595Z,98794.00
2019-03-09T19:45:02.339Z,98798.00
2019-03-09T19:47:30.690Z,98782.00
2019-03-09T19:49:59.035Z,98777.00
2019-03-09T19:52:28.095Z,98767.00
2019-03-09T19:54:56.406Z,98762.00
2019-03-09T19:57:25.128Z,98763.00
2019-03-09T19:59:53.492Z,98754.00
2019-03-09T20:02:22.289Z,98758.00
2019-03-09T20:04:50.608Z,98750.00
2019-03-09T20:07:18.914Z,98748.00
2019-03-09T20:09:47.327Z,98759.00
2019-03-09T20:12:15.693Z,98756.00
2019-03-09T20:14:44.069Z,98754.00
2019-03-09T20:17:12.420Z,98751.00
2019-03-09T20:19:41.186Z,98742.00
2019-03-09T20:22:09.566Z,98741.00
2019-03-09T20:24:37.906Z,98741.00
2019-03-09T20:27:06.598Z,98737.00
2019-03-09T20:29:35.317Z,98727.00
2019-03-09T20:32:05.714Z,98707.00
2019-03-09T20:34:34.214Z,98706.00
2019-03-09T20:37:02.531Z,98693.00
2019-03-09T20:39:31.056Z,98680.00
2019-03-09T20:41:59.600Z,98676.00
2019-03-09T20:44:27.849Z,98668.00
2019-03-09T20:46:56.188Z,98659.00
2019-03-09T20:49:24.470Z,98674.00
2019-03-09T20:51:52.927Z,98676.00
2019-03-09T20:54:21.315Z,98689.00
2019-03-09T20:56:50.171Z,98698.00
2019-03-09T20:59:18.864Z,98711.00
2019-03-09T21:01:47.584Z,98693.00
2019-03-09T21:04:16.236Z,98695.00
2019-03-09T21:06:44.659Z,98697.00
2019-03-09T21:09:12.990Z,98694.00
2019-03-09T21:11:41.359Z,98698.00
2019-03-09T21:14:09.725Z,98689.00
2019-03-09T21:16:38.148Z,98680.00
2019-03-09T21:19:06.518Z,98665.00
2019-03-09T21:21:35.056Z,98657.00
2019-03-09T21:24:04.074Z,98666.00
2019-03-09T21:26:32.591Z,98658.00
2019-03-09T21:29:02.154Z,98653.00
2019-03-09T21:31:30.656Z,98650.00
2019-03-09T21:33:59.117Z,98646.00
2019-03-09T21:36:27.318Z,98638.00
2019-03-09T21:38:55.755Z,98633.00
2019-03-09T21:41:24.441Z,98640.00
2019-03-09T21:43:52.796Z,98634.00
2019-03-09T21:46:21.499Z,98625.00
2019-03-09T21:48:50.772Z,98615.00
2019-03-09T21:51:22.758Z,98608.00
2019-03-09T21:53:51.231Z,98613.00
2019-03-09T21:56:19.961Z,98605.00
2019-03-09T21:58:48.942Z,98606.00
2019-03-09T22:01:17.200Z,98592.00
2019-03-09T22:03:45.702Z,98597.00
2019-03-09T22:06:14.691Z,98597.00
2019-03-09T22:08:43.661Z,98590.00
2019-03-09T22:11:12.419Z,98582.00
2019-03-09T22:13:41.314Z,98570.00
2019-03-09T22:16:09.768Z,98560.00
2019-03-09T22:18:38.383Z,98555.00
2019-03-09T22:21:07.180Z,98546.00
2019-03-09T22:23:43.724Z,98553.00
2019-03-09T22:26:06.229Z,98539.00
2019-03-09T22:28:34.698Z,98557.00
2019-03-09T22:31:03.202Z,98540.00
2019-03-09T22:33:31.455Z,98531.00
2019-03-09T22:36:00.205Z,98530.00
2019-03-09T22:38:28.635Z,98519.00
2019-03-09T22:40:57.231Z,98517.00
2019-03-09T22:43:25.570Z,98525.00
2019-03-09T22:45:54.004Z,98512.00
2019-03-09T22:48:22.356Z,98499.00
2019-03-09T22:50:50.799Z,98502.00
2019-03-09T22:53:19.770Z,98505.00
2019-03-09T22:55:48.097Z,98498.00
2019-03-09T22:58:16.486Z,98491.00
2019-03-09T23:00:45.125Z,98476.00
2019-03-09T23:03:13.895Z,98473.00
2019-03-09T23:05:42.933Z,98468.00
2019-03-09T23:08:11.495Z,98466.00
2019-03-09T23:10:40.236Z,98459.00
2019-03-09T23:13:08.605Z,98460.00
2019-03-09T23:15:36.913Z,98444.00
2019-03-09T23:18:05.278Z,98441.00
2019-03-09T23:20:34.119Z,98446.00
2019-03-09T23:23:02.676Z,98461.00
2019-03-09T23:25:31.168Z,98452.00
2019-03-09T23:27:59.661Z,98439.00
2019-03-09T23:30:28.273Z,98442.00
2019-03-09T23:32:56.645Z,98439.00
2019-03-09T23:35:25.109Z,98442.00
2019-03-09T23:37:53.617Z,98437.00
2019-03-09T23:40:22.305Z,98433.00
2019-03-09T23:42:50.789Z,98428.00
2019-03-09T23:45:19.426Z,98414.00
2019-03-09T23:47:48.421Z,98419.00
2019-03-09T23:50:17.134Z,98412.00
2019-03-09T23:52:45.870Z,98405.00
2019-03-09T23:55:21.821Z,98409.00
2019-03-09T23:57:45.817Z,98395.00
